ITY110 EDDK-GCLP
Flight info
| Callsign | ITY110 |
|---|---|
| Flight time | 4h 24m |
| Altitude | 39000 |
| Route | NVO3P NVO Y868 SOGRI UM617 CIV N872 MEDIL DCT KOVIN DCT NIDUV DCT KIHVI UN872 ERIGA UZ218 FUJTI DCT BAKUP DCT BATAX DCT GANSU DCT BEXAL DCT SAMAR |
| Aircraft | A332/H-SDE3GHIJ2J3J5M1RVWXY/LB2D1 |
Departure
| Time | 2026-04-22 08:26 |
|---|---|
| Airport | Cologne Bonn Airport (EDDK) |
Arrival
| Time | 2026-04-22 12:50 |
|---|---|
| Airport | Gran Canaria Airport (GCLP) |
| Time | Latitude | Longitude | Altitude | Speed | Heading |
|---|---|---|---|---|---|
| 2026-04-22 07:52 | 50.88224 | 7.11859 | 237 ft | 0 kts | 214° |
| 2026-04-22 08:17 | 50.88239 | 7.11876 | 239 ft | 3 kts | 214° |
| 2026-04-22 08:17 | 50.88254 | 7.11892 | 239 ft | 3 kts | 214° |
| 2026-04-22 08:18 | 50.88270 | 7.11909 | 239 ft | 2 kts | 214° |
| 2026-04-22 08:18 | 50.88288 | 7.11920 | 237 ft | 3 kts | 162° |
| 2026-04-22 08:18 | 50.88305 | 7.11904 | 239 ft | 3 kts | 110° |
| 2026-04-22 08:18 | 50.88310 | 7.11880 | 238 ft | 0 kts | 126° |
| 2026-04-22 08:21 | 50.88310 | 7.11882 | 237 ft | 1 kts | 126° |
| 2026-04-22 08:22 | 50.88299 | 7.11900 | 239 ft | 4 kts | 132° |
| 2026-04-22 08:22 | 50.88264 | 7.11965 | 239 ft | 10 kts | 129° |
| 2026-04-22 08:22 | 50.88223 | 7.12053 | 237 ft | 10 kts | 126° |
| 2026-04-22 08:22 | 50.88178 | 7.12152 | 236 ft | 12 kts | 126° |
| 2026-04-22 08:23 | 50.88128 | 7.12256 | 237 ft | 12 kts | 127° |
| 2026-04-22 08:23 | 50.88078 | 7.12368 | 239 ft | 13 kts | 125° |
| 2026-04-22 08:23 | 50.88031 | 7.12488 | 237 ft | 13 kts | 121° |
| 2026-04-22 08:23 | 50.87985 | 7.12604 | 238 ft | 10 kts | 115° |
| 2026-04-22 08:24 | 50.87981 | 7.12655 | 237 ft | 0 kts | 84° |
| 2026-04-22 08:24 | 50.87981 | 7.12658 | 237 ft | 0 kts | 84° |
| 2026-04-22 08:24 | 50.87982 | 7.12663 | 238 ft | 1 kts | 84° |
| 2026-04-22 08:24 | 50.87982 | 7.12670 | 238 ft | 2 kts | 81° |
| 2026-04-22 08:25 | 50.87990 | 7.12717 | 237 ft | 6 kts | 74° |
| 2026-04-22 08:25 | 50.88005 | 7.12841 | 240 ft | 13 kts | 86° |
| 2026-04-22 08:25 | 50.87998 | 7.12971 | 242 ft | 10 kts | 110° |
| 2026-04-22 08:25 | 50.87963 | 7.13030 | 244 ft | 11 kts | 137° |
| 2026-04-22 08:26 | 50.87735 | 7.13368 | 250 ft | 76 kts | 136° |
| 2026-04-22 08:26 | 50.87212 | 7.14127 | 263 ft | 125 kts | 135° |
| 2026-04-22 08:26 | 50.86515 | 7.15117 | 636 ft | 137 kts | 135° |
| 2026-04-22 08:26 | 50.85791 | 7.16184 | 1115 ft | 153 kts | 134° |
| 2026-04-22 08:27 | 50.84971 | 7.17367 | 1670 ft | 169 kts | 138° |
| 2026-04-22 08:27 | 50.83815 | 7.18023 | 1962 ft | 193 kts | 182° |
| 2026-04-22 08:27 | 50.82618 | 7.17009 | 2397 ft | 211 kts | 228° |
| 2026-04-22 08:27 | 50.82106 | 7.14720 | 2632 ft | 239 kts | 271° |
| 2026-04-22 08:28 | 50.82488 | 7.12071 | 3039 ft | 256 kts | 293° |
| 2026-04-22 08:28 | 50.83332 | 7.09508 | 3587 ft | 268 kts | 303° |
| 2026-04-22 08:28 | 50.84245 | 7.06900 | 4342 ft | 273 kts | 291° |
| 2026-04-22 08:28 | 50.84679 | 7.04002 | 4843 ft | 277 kts | 278° |
| 2026-04-22 08:29 | 50.84836 | 7.00933 | 5401 ft | 283 kts | 274° |
| 2026-04-22 08:29 | 50.84918 | 6.97798 | 6242 ft | 288 kts | 272° |
| 2026-04-22 08:29 | 50.84936 | 6.94596 | 7156 ft | 293 kts | 271° |
| 2026-04-22 08:29 | 50.84910 | 6.91348 | 8029 ft | 297 kts | 270° |
| 2026-04-22 08:30 | 50.84857 | 6.88077 | 8931 ft | 301 kts | 269° |
| 2026-04-22 08:30 | 50.84789 | 6.84725 | 9846 ft | 304 kts | 269° |
| 2026-04-22 08:30 | 50.84718 | 6.81353 | 10643 ft | 311 kts | 269° |
| 2026-04-22 08:30 | 50.84646 | 6.77817 | 10994 ft | 333 kts | 269° |
| 2026-04-22 08:31 | 50.84575 | 6.74036 | 11278 ft | 355 kts | 269° |
| 2026-04-22 08:31 | 50.84501 | 6.70016 | 11593 ft | 374 kts | 269° |
| 2026-04-22 08:31 | 50.84344 | 6.61661 | 12874 ft | 388 kts | 269° |
| 2026-04-22 08:32 | 50.84261 | 6.57379 | 13607 ft | 391 kts | 269° |
| 2026-04-22 08:32 | 50.84174 | 6.53058 | 14332 ft | 394 kts | 269° |
| 2026-04-22 08:32 | 50.84084 | 6.48700 | 14943 ft | 399 kts | 269° |
| 2026-04-22 08:32 | 50.83992 | 6.44295 | 15548 ft | 403 kts | 269° |
| 2026-04-22 08:33 | 50.83897 | 6.39839 | 16166 ft | 407 kts | 269° |
| 2026-04-22 08:33 | 50.83800 | 6.35341 | 16787 ft | 411 kts | 269° |
| 2026-04-22 08:33 | 50.83701 | 6.30817 | 17370 ft | 415 kts | 269° |
| 2026-04-22 08:33 | 50.83598 | 6.26217 | 17989 ft | 419 kts | 270° |
| 2026-04-22 08:34 | 50.83493 | 6.21582 | 18577 ft | 423 kts | 270° |
| 2026-04-22 08:34 | 50.83386 | 6.16929 | 19086 ft | 426 kts | 270° |
| 2026-04-22 08:34 | 50.83275 | 6.12212 | 19582 ft | 430 kts | 270° |
| 2026-04-22 08:34 | 50.83162 | 6.07465 | 20059 ft | 434 kts | 269° |
| 2026-04-22 08:35 | 50.83085 | 6.04294 | 20379 ft | 437 kts | 269° |
| 2026-04-22 08:35 | 50.82823 | 5.92385 | 21564 ft | 445 kts | 270° |
| 2026-04-22 08:35 | 50.82756 | 5.89069 | 21887 ft | 447 kts | 270° |
| 2026-04-22 08:36 | 50.82656 | 5.84134 | 22361 ft | 450 kts | 270° |
| 2026-04-22 08:36 | 50.82554 | 5.79174 | 22821 ft | 453 kts | 270° |
| 2026-04-22 08:36 | 50.82450 | 5.74233 | 23277 ft | 456 kts | 270° |
| 2026-04-22 08:36 | 50.82339 | 5.69121 | 23734 ft | 459 kts | 270° |
| 2026-04-22 08:37 | 50.82228 | 5.64131 | 24144 ft | 462 kts | 270° |
| 2026-04-22 08:37 | 50.82112 | 5.59035 | 24503 ft | 464 kts | 269° |
| 2026-04-22 08:37 | 50.81992 | 5.53924 | 24939 ft | 465 kts | 269° |
| 2026-04-22 08:37 | 50.81868 | 5.48795 | 25381 ft | 466 kts | 269° |
| 2026-04-22 08:38 | 50.81742 | 5.43663 | 25788 ft | 467 kts | 269° |
| 2026-04-22 08:38 | 50.81636 | 5.39376 | 26115 ft | 469 kts | 269° |
| 2026-04-22 08:38 | 50.81506 | 5.34202 | 26528 ft | 470 kts | 269° |
| 2026-04-22 08:38 | 50.81373 | 5.29029 | 26924 ft | 471 kts | 269° |
| 2026-04-22 08:39 | 50.81238 | 5.23843 | 27332 ft | 473 kts | 269° |
| 2026-04-22 08:39 | 50.81100 | 5.18642 | 27720 ft | 474 kts | 269° |
| 2026-04-22 08:39 | 50.80960 | 5.13424 | 28106 ft | 475 kts | 269° |
| 2026-04-22 08:39 | 50.80788 | 5.08214 | 28562 ft | 475 kts | 266° |
| 2026-04-22 08:40 | 50.80285 | 5.03033 | 28928 ft | 478 kts | 259° |
| 2026-04-22 08:40 | 50.79500 | 4.97984 | 29285 ft | 480 kts | 257° |
| 2026-04-22 08:40 | 50.78611 | 4.92881 | 29643 ft | 482 kts | 256° |
| 2026-04-22 08:40 | 50.77668 | 4.87790 | 29977 ft | 484 kts | 255° |
| 2026-04-22 08:41 | 50.76699 | 4.82707 | 30445 ft | 482 kts | 255° |
| 2026-04-22 08:41 | 50.75727 | 4.77646 | 30807 ft | 482 kts | 255° |
| 2026-04-22 08:41 | 50.74754 | 4.72579 | 31139 ft | 482 kts | 255° |
| 2026-04-22 08:41 | 50.73775 | 4.67462 | 31523 ft | 481 kts | 256° |
| 2026-04-22 08:42 | 50.72821 | 4.62464 | 31987 ft | 478 kts | 256° |
| 2026-04-22 08:42 | 50.71868 | 4.57460 | 32399 ft | 475 kts | 256° |
| 2026-04-22 08:42 | 50.70917 | 4.52468 | 32762 ft | 475 kts | 256° |
| 2026-04-22 08:42 | 50.69966 | 4.47488 | 33109 ft | 474 kts | 256° |
| 2026-04-22 08:43 | 50.69013 | 4.42507 | 33472 ft | 473 kts | 256° |
| 2026-04-22 08:43 | 50.68058 | 4.37533 | 33833 ft | 472 kts | 256° |
| 2026-04-22 08:43 | 50.67107 | 4.32594 | 34198 ft | 470 kts | 256° |
| 2026-04-22 08:43 | 50.66167 | 4.27725 | 34506 ft | 470 kts | 256° |
| 2026-04-22 08:44 | 50.65217 | 4.22823 | 34775 ft | 469 kts | 256° |
| 2026-04-22 08:44 | 50.64261 | 4.17896 | 35031 ft | 469 kts | 256° |
| 2026-04-22 08:44 | 50.63304 | 4.12981 | 35291 ft | 468 kts | 256° |
| 2026-04-22 08:44 | 50.62342 | 4.08057 | 35542 ft | 468 kts | 256° |
| 2026-04-22 08:45 | 50.61385 | 4.03167 | 35782 ft | 468 kts | 256° |
| 2026-04-22 08:45 | 50.60421 | 3.98278 | 36039 ft | 468 kts | 255° |
| 2026-04-22 08:45 | 50.59228 | 3.93507 | 36270 ft | 470 kts | 248° |
| 2026-04-22 08:45 | 50.57628 | 3.88990 | 36473 ft | 473 kts | 239° |
| 2026-04-22 08:46 | 50.55606 | 3.84897 | 36792 ft | 475 kts | 230° |
| 2026-04-22 08:46 | 50.53175 | 3.81337 | 37022 ft | 478 kts | 221° |
| 2026-04-22 08:46 | 50.50425 | 3.78479 | 37224 ft | 482 kts | 211° |
| 2026-04-22 08:46 | 50.47408 | 3.76135 | 37453 ft | 484 kts | 208° |
| 2026-04-22 08:47 | 50.44328 | 3.73980 | 37668 ft | 484 kts | 206° |
| 2026-04-22 08:47 | 50.41222 | 3.71915 | 37879 ft | 484 kts | 206° |
| 2026-04-22 08:47 | 50.38114 | 3.69880 | 38093 ft | 485 kts | 206° |
| 2026-04-22 08:47 | 50.34998 | 3.67837 | 38262 ft | 484 kts | 206° |
| 2026-04-22 08:48 | 50.31899 | 3.65787 | 38500 ft | 484 kts | 207° |
| 2026-04-22 08:48 | 50.28806 | 3.63725 | 38732 ft | 483 kts | 207° |
| 2026-04-22 08:48 | 50.25755 | 3.61679 | 38935 ft | 483 kts | 207° |
| 2026-04-22 08:48 | 50.22666 | 3.59602 | 39097 ft | 483 kts | 207° |
| 2026-04-22 08:49 | 50.19583 | 3.57527 | 39249 ft | 483 kts | 207° |
| 2026-04-22 08:49 | 50.13386 | 3.53357 | 39285 ft | 485 kts | 207° |
| 2026-04-22 08:50 | 50.07185 | 3.49201 | 39277 ft | 485 kts | 207° |
| 2026-04-22 08:50 | 50.00991 | 3.45063 | 39276 ft | 484 kts | 207° |
| 2026-04-22 08:51 | 49.94794 | 3.40940 | 39270 ft | 485 kts | 207° |
| 2026-04-22 08:51 | 49.88597 | 3.36828 | 39264 ft | 485 kts | 207° |
| 2026-04-22 08:52 | 49.82381 | 3.32712 | 39261 ft | 485 kts | 207° |
| 2026-04-22 08:52 | 49.76179 | 3.28615 | 39274 ft | 485 kts | 207° |
| 2026-04-22 08:53 | 49.70005 | 3.24547 | 39256 ft | 485 kts | 207° |
| 2026-04-22 08:53 | 49.63785 | 3.20464 | 39246 ft | 486 kts | 207° |
| 2026-04-22 08:54 | 49.57564 | 3.16393 | 39257 ft | 486 kts | 207° |
| 2026-04-22 08:54 | 49.51556 | 3.11751 | 39242 ft | 478 kts | 219° |
| 2026-04-22 08:55 | 49.46809 | 3.04869 | 39242 ft | 463 kts | 239° |
| 2026-04-22 08:55 | 49.43455 | 2.96511 | 39244 ft | 458 kts | 246° |
| 2026-04-22 08:56 | 49.40408 | 2.87898 | 39241 ft | 459 kts | 246° |
| 2026-04-22 08:56 | 49.37375 | 2.79270 | 39236 ft | 459 kts | 246° |
| 2026-04-22 08:57 | 49.34295 | 2.70670 | 39235 ft | 459 kts | 246° |
| 2026-04-22 08:57 | 49.31213 | 2.62164 | 39223 ft | 457 kts | 245° |
| 2026-04-22 08:58 | 49.28128 | 2.53700 | 39236 ft | 452 kts | 245° |
| 2026-04-22 08:58 | 49.25058 | 2.45300 | 39230 ft | 451 kts | 245° |
| 2026-04-22 08:59 | 49.21986 | 2.36911 | 39229 ft | 451 kts | 245° |
| 2026-04-22 08:59 | 49.18908 | 2.28528 | 39214 ft | 451 kts | 245° |
| 2026-04-22 09:00 | 49.16140 | 2.21015 | 39196 ft | 451 kts | 245° |
| 2026-04-22 09:00 | 49.13042 | 2.12632 | 39211 ft | 453 kts | 245° |
| 2026-04-22 09:01 | 49.09967 | 2.04218 | 39214 ft | 452 kts | 248° |
| 2026-04-22 09:01 | 49.07261 | 1.95553 | 39211 ft | 452 kts | 250° |
| 2026-04-22 09:02 | 49.04650 | 1.86893 | 39193 ft | 453 kts | 250° |
| 2026-04-22 09:02 | 49.02025 | 1.78147 | 39194 ft | 453 kts | 250° |
| 2026-04-22 09:03 | 48.99379 | 1.69391 | 39192 ft | 454 kts | 250° |
| 2026-04-22 09:03 | 48.96727 | 1.60660 | 39191 ft | 454 kts | 250° |
| 2026-04-22 09:04 | 48.94065 | 1.51938 | 39189 ft | 454 kts | 250° |
| 2026-04-22 09:04 | 48.91410 | 1.43271 | 39190 ft | 455 kts | 250° |
| 2026-04-22 09:05 | 48.88731 | 1.34552 | 39182 ft | 455 kts | 249° |
| 2026-04-22 09:05 | 48.86049 | 1.25854 | 39179 ft | 454 kts | 249° |
| 2026-04-22 09:06 | 48.83365 | 1.17182 | 39181 ft | 453 kts | 249° |
| 2026-04-22 09:06 | 48.80680 | 1.08532 | 39173 ft | 453 kts | 249° |
| 2026-04-22 09:07 | 48.77983 | 0.99878 | 39167 ft | 453 kts | 249° |
| 2026-04-22 09:07 | 48.75276 | 0.91233 | 39167 ft | 454 kts | 248° |
| 2026-04-22 09:08 | 48.72134 | 0.82891 | 39155 ft | 456 kts | 243° |
| 2026-04-22 09:08 | 48.68860 | 0.74747 | 39157 ft | 455 kts | 243° |
| 2026-04-22 09:09 | 48.65533 | 0.66589 | 39154 ft | 455 kts | 243° |
| 2026-04-22 09:09 | 48.62209 | 0.58459 | 39144 ft | 453 kts | 243° |
| 2026-04-22 09:10 | 48.58902 | 0.50372 | 39144 ft | 452 kts | 243° |
| 2026-04-22 09:10 | 48.55596 | 0.42299 | 39124 ft | 452 kts | 243° |
| 2026-04-22 09:11 | 48.52299 | 0.34272 | 39132 ft | 448 kts | 243° |
| 2026-04-22 09:11 | 48.49009 | 0.26288 | 39133 ft | 447 kts | 243° |
| 2026-04-22 09:12 | 48.45721 | 0.18329 | 39125 ft | 447 kts | 243° |
| 2026-04-22 09:12 | 48.42441 | 0.10414 | 39131 ft | 447 kts | 243° |
| 2026-04-22 09:13 | 48.39143 | 0.02484 | 39121 ft | 447 kts | 243° |
| 2026-04-22 09:13 | 48.35800 | -0.05410 | 39114 ft | 447 kts | 240° |
| 2026-04-22 09:14 | 48.32111 | -0.12951 | 39124 ft | 448 kts | 238° |
| 2026-04-22 09:14 | 48.28285 | -0.20351 | 39115 ft | 448 kts | 237° |
| 2026-04-22 09:15 | 48.24491 | -0.27716 | 39111 ft | 448 kts | 238° |
| 2026-04-22 09:15 | 48.20705 | -0.35132 | 39095 ft | 447 kts | 238° |
| 2026-04-22 09:16 | 48.16936 | -0.42528 | 39086 ft | 446 kts | 238° |
| 2026-04-22 09:16 | 48.13161 | -0.49924 | 39084 ft | 446 kts | 238° |
| 2026-04-22 09:17 | 48.09392 | -0.57282 | 39077 ft | 446 kts | 238° |
| 2026-04-22 09:17 | 48.05606 | -0.64649 | 39071 ft | 446 kts | 238° |
| 2026-04-22 09:18 | 48.01842 | -0.71952 | 39077 ft | 446 kts | 238° |
| 2026-04-22 09:18 | 47.98052 | -0.79289 | 39073 ft | 445 kts | 237° |
| 2026-04-22 09:19 | 47.94271 | -0.86587 | 39066 ft | 444 kts | 237° |
| 2026-04-22 09:19 | 47.90483 | -0.93881 | 39073 ft | 445 kts | 237° |
| 2026-04-22 09:20 | 47.86689 | -1.01166 | 39068 ft | 445 kts | 237° |
| 2026-04-22 09:20 | 47.83534 | -1.07210 | 39063 ft | 445 kts | 237° |
| 2026-04-22 09:21 | 47.79727 | -1.14483 | 39068 ft | 445 kts | 237° |
| 2026-04-22 09:21 | 47.75916 | -1.21745 | 39056 ft | 445 kts | 237° |
| 2026-04-22 09:22 | 47.72099 | -1.28999 | 39056 ft | 445 kts | 236° |
| 2026-04-22 09:22 | 47.68309 | -1.36183 | 39050 ft | 445 kts | 236° |
| 2026-04-22 09:23 | 47.64488 | -1.43407 | 39044 ft | 445 kts | 236° |
| 2026-04-22 09:23 | 47.60659 | -1.50625 | 39042 ft | 445 kts | 236° |
| 2026-04-22 09:24 | 47.56638 | -1.57620 | 39035 ft | 446 kts | 232° |
| 2026-04-22 09:24 | 47.52464 | -1.64413 | 39033 ft | 445 kts | 232° |
| 2026-04-22 09:25 | 47.48288 | -1.71176 | 39024 ft | 444 kts | 232° |
| 2026-04-22 09:25 | 47.44152 | -1.77918 | 39019 ft | 442 kts | 232° |
| 2026-04-22 09:26 | 47.40026 | -1.84661 | 39010 ft | 442 kts | 232° |
| 2026-04-22 09:26 | 47.35841 | -1.91260 | 38990 ft | 445 kts | 226° |
| 2026-04-22 09:27 | 47.30820 | -1.96695 | 38994 ft | 450 kts | 217° |
| 2026-04-22 09:27 | 47.25492 | -2.01551 | 38992 ft | 451 kts | 216° |
| 2026-04-22 09:28 | 47.20115 | -2.06286 | 38992 ft | 451 kts | 216° |
| 2026-04-22 09:28 | 47.14739 | -2.11027 | 38996 ft | 450 kts | 216° |
| 2026-04-22 09:29 | 47.09387 | -2.15768 | 38958 ft | 449 kts | 216° |
| 2026-04-22 09:29 | 47.04035 | -2.20514 | 38968 ft | 449 kts | 216° |
| 2026-04-22 09:30 | 46.98688 | -2.25246 | 38971 ft | 449 kts | 216° |
| 2026-04-22 09:30 | 46.93337 | -2.29969 | 38967 ft | 449 kts | 216° |
| 2026-04-22 09:31 | 46.87991 | -2.34676 | 38964 ft | 448 kts | 216° |
| 2026-04-22 09:31 | 46.82671 | -2.39350 | 38964 ft | 448 kts | 216° |
| 2026-04-22 09:32 | 46.77323 | -2.44043 | 38965 ft | 448 kts | 215° |
| 2026-04-22 09:32 | 46.71985 | -2.48716 | 38969 ft | 447 kts | 215° |
| 2026-04-22 09:33 | 46.66655 | -2.53371 | 38965 ft | 446 kts | 215° |
| 2026-04-22 09:33 | 46.61326 | -2.58015 | 38960 ft | 446 kts | 215° |
| 2026-04-22 09:34 | 46.56004 | -2.62642 | 38961 ft | 446 kts | 215° |
| 2026-04-22 09:34 | 46.50674 | -2.67265 | 38953 ft | 446 kts | 215° |
| 2026-04-22 09:35 | 46.42710 | -2.74152 | 38954 ft | 446 kts | 215° |
| 2026-04-22 09:35 | 46.37377 | -2.78750 | 38945 ft | 446 kts | 215° |
| 2026-04-22 09:36 | 46.32044 | -2.83338 | 38940 ft | 445 kts | 215° |
| 2026-04-22 09:36 | 46.26712 | -2.87916 | 38943 ft | 445 kts | 215° |
| 2026-04-22 09:37 | 46.21416 | -2.92512 | 38942 ft | 445 kts | 216° |
| 2026-04-22 09:37 | 46.16112 | -2.97137 | 38936 ft | 444 kts | 216° |
| 2026-04-22 09:38 | 46.10816 | -3.01745 | 38926 ft | 445 kts | 215° |
| 2026-04-22 09:38 | 46.05546 | -3.06314 | 38933 ft | 445 kts | 215° |
| 2026-04-22 09:39 | 46.00224 | -3.10915 | 38930 ft | 445 kts | 215° |
| 2026-04-22 09:39 | 45.94909 | -3.15497 | 38928 ft | 445 kts | 215° |
| 2026-04-22 09:40 | 45.89608 | -3.20057 | 38926 ft | 443 kts | 215° |
| 2026-04-22 09:40 | 45.84338 | -3.24581 | 38925 ft | 443 kts | 215° |
| 2026-04-22 09:41 | 45.79043 | -3.29118 | 38924 ft | 443 kts | 215° |
| 2026-04-22 09:41 | 45.73751 | -3.33642 | 38925 ft | 443 kts | 215° |
| 2026-04-22 09:42 | 45.68452 | -3.38163 | 38919 ft | 443 kts | 215° |
| 2026-04-22 09:42 | 45.63141 | -3.42682 | 38920 ft | 444 kts | 215° |
| 2026-04-22 09:43 | 45.57862 | -3.47165 | 38925 ft | 444 kts | 215° |
| 2026-04-22 09:43 | 45.52543 | -3.51671 | 38924 ft | 444 kts | 215° |
| 2026-04-22 09:44 | 45.47249 | -3.56144 | 38924 ft | 441 kts | 215° |
| 2026-04-22 09:44 | 45.41971 | -3.60595 | 38927 ft | 440 kts | 215° |
| 2026-04-22 09:45 | 45.36694 | -3.65037 | 38921 ft | 441 kts | 215° |
| 2026-04-22 09:45 | 45.31443 | -3.69447 | 38918 ft | 441 kts | 215° |
| 2026-04-22 09:46 | 45.26145 | -3.73887 | 38930 ft | 442 kts | 215° |
| 2026-04-22 09:46 | 45.20844 | -3.78320 | 38930 ft | 442 kts | 215° |
| 2026-04-22 09:47 | 45.15537 | -3.82746 | 38933 ft | 442 kts | 215° |
| 2026-04-22 09:47 | 45.10232 | -3.87162 | 38934 ft | 442 kts | 215° |
| 2026-04-22 09:48 | 45.04941 | -3.91556 | 38942 ft | 441 kts | 215° |
| 2026-04-22 09:48 | 44.99656 | -3.95937 | 38944 ft | 441 kts | 215° |
| 2026-04-22 09:49 | 44.94362 | -4.00316 | 38944 ft | 441 kts | 215° |
| 2026-04-22 09:49 | 44.89063 | -4.04690 | 38943 ft | 441 kts | 215° |
| 2026-04-22 09:50 | 44.83785 | -4.09037 | 38944 ft | 442 kts | 215° |
| 2026-04-22 09:50 | 44.78470 | -4.13406 | 38952 ft | 442 kts | 215° |
| 2026-04-22 09:51 | 44.73162 | -4.17758 | 38957 ft | 442 kts | 215° |
| 2026-04-22 09:51 | 44.67845 | -4.22108 | 38960 ft | 442 kts | 215° |
| 2026-04-22 09:52 | 44.62531 | -4.26446 | 38957 ft | 442 kts | 215° |
| 2026-04-22 09:52 | 44.57211 | -4.30780 | 38966 ft | 442 kts | 215° |
| 2026-04-22 09:53 | 44.51894 | -4.35104 | 38961 ft | 442 kts | 215° |
| 2026-04-22 09:53 | 44.46601 | -4.39398 | 38967 ft | 443 kts | 214° |
| 2026-04-22 09:54 | 44.41270 | -4.43720 | 38978 ft | 443 kts | 215° |
| 2026-04-22 09:54 | 44.35993 | -4.48138 | 38979 ft | 442 kts | 216° |
| 2026-04-22 09:55 | 44.30739 | -4.52610 | 38975 ft | 442 kts | 216° |
| 2026-04-22 09:55 | 44.25471 | -4.57082 | 38986 ft | 443 kts | 216° |
| 2026-04-22 09:56 | 44.20196 | -4.61536 | 38988 ft | 442 kts | 216° |
| 2026-04-22 09:56 | 44.14936 | -4.65960 | 38988 ft | 441 kts | 216° |
| 2026-04-22 09:57 | 44.09681 | -4.70371 | 38989 ft | 442 kts | 216° |
| 2026-04-22 09:57 | 44.04433 | -4.74768 | 39001 ft | 442 kts | 216° |
| 2026-04-22 09:58 | 43.99160 | -4.79176 | 39001 ft | 442 kts | 216° |
| 2026-04-22 09:58 | 43.93884 | -4.83577 | 39007 ft | 442 kts | 216° |
| 2026-04-22 09:59 | 43.88608 | -4.87968 | 39004 ft | 442 kts | 216° |
| 2026-04-22 09:59 | 43.83362 | -4.92326 | 39011 ft | 442 kts | 216° |
| 2026-04-22 10:00 | 43.78079 | -4.96705 | 39017 ft | 442 kts | 215° |
| 2026-04-22 10:00 | 43.72818 | -5.01056 | 39016 ft | 439 kts | 215° |
| 2026-04-22 10:01 | 43.67576 | -5.05383 | 39012 ft | 439 kts | 216° |
| 2026-04-22 10:01 | 43.62329 | -5.09705 | 39012 ft | 440 kts | 215° |
| 2026-04-22 10:02 | 43.57066 | -5.14033 | 39016 ft | 440 kts | 216° |
| 2026-04-22 10:02 | 43.51815 | -5.18350 | 39011 ft | 440 kts | 215° |
| 2026-04-22 10:03 | 43.46549 | -5.22664 | 38998 ft | 440 kts | 216° |
| 2026-04-22 10:03 | 43.41324 | -5.26938 | 38996 ft | 440 kts | 216° |
| 2026-04-22 10:04 | 43.36047 | -5.31243 | 38994 ft | 440 kts | 215° |
| 2026-04-22 10:04 | 43.30782 | -5.35531 | 38991 ft | 439 kts | 215° |
| 2026-04-22 10:05 | 43.25531 | -5.39796 | 38988 ft | 438 kts | 215° |
| 2026-04-22 10:05 | 43.20274 | -5.44056 | 38987 ft | 438 kts | 215° |
| 2026-04-22 10:06 | 43.15066 | -5.48270 | 38988 ft | 438 kts | 215° |
| 2026-04-22 10:06 | 43.09818 | -5.52505 | 38980 ft | 437 kts | 215° |
| 2026-04-22 10:07 | 43.04573 | -5.56731 | 38970 ft | 437 kts | 215° |
| 2026-04-22 10:07 | 43.00210 | -5.60240 | 38973 ft | 437 kts | 215° |
| 2026-04-22 10:08 | 42.94957 | -5.64458 | 38968 ft | 437 kts | 215° |
| 2026-04-22 10:08 | 42.89700 | -5.68669 | 38965 ft | 437 kts | 215° |
| 2026-04-22 10:09 | 42.84447 | -5.72869 | 38997 ft | 438 kts | 214° |
| 2026-04-22 10:09 | 42.79184 | -5.77069 | 39005 ft | 439 kts | 214° |
| 2026-04-22 10:10 | 42.73943 | -5.81242 | 38990 ft | 439 kts | 214° |
| 2026-04-22 10:10 | 42.68669 | -5.85433 | 39010 ft | 439 kts | 214° |
| 2026-04-22 10:11 | 42.63381 | -5.89626 | 39009 ft | 439 kts | 214° |
| 2026-04-22 10:11 | 42.58106 | -5.93802 | 38998 ft | 439 kts | 214° |
| 2026-04-22 10:12 | 42.52825 | -5.97974 | 39000 ft | 439 kts | 214° |
| 2026-04-22 10:12 | 42.47535 | -6.02145 | 38978 ft | 439 kts | 214° |
| 2026-04-22 10:13 | 42.42286 | -6.06275 | 38985 ft | 439 kts | 214° |
| 2026-04-22 10:13 | 42.36989 | -6.10436 | 38984 ft | 440 kts | 214° |
| 2026-04-22 10:14 | 42.31693 | -6.14587 | 38985 ft | 439 kts | 214° |
| 2026-04-22 10:14 | 42.26402 | -6.18726 | 38985 ft | 439 kts | 214° |
| 2026-04-22 10:15 | 42.21115 | -6.22854 | 38986 ft | 440 kts | 214° |
| 2026-04-22 10:15 | 42.15807 | -6.26991 | 38996 ft | 440 kts | 214° |
| 2026-04-22 10:16 | 42.10501 | -6.31117 | 38999 ft | 440 kts | 214° |
| 2026-04-22 10:16 | 42.05195 | -6.35235 | 38998 ft | 440 kts | 214° |
| 2026-04-22 10:17 | 41.99922 | -6.39319 | 39003 ft | 440 kts | 214° |
| 2026-04-22 10:17 | 41.94606 | -6.43430 | 39004 ft | 441 kts | 214° |
| 2026-04-22 10:18 | 41.89283 | -6.47538 | 39012 ft | 441 kts | 214° |
| 2026-04-22 10:18 | 41.83970 | -6.51629 | 39012 ft | 438 kts | 214° |
| 2026-04-22 10:19 | 41.78708 | -6.55674 | 39008 ft | 438 kts | 214° |
| 2026-04-22 10:19 | 41.73407 | -6.59742 | 39013 ft | 439 kts | 214° |
| 2026-04-22 10:20 | 41.68161 | -6.63929 | 39015 ft | 437 kts | 217° |
| 2026-04-22 10:20 | 41.63145 | -6.68517 | 39018 ft | 437 kts | 219° |
| 2026-04-22 10:21 | 41.58179 | -6.73191 | 39019 ft | 437 kts | 219° |
| 2026-04-22 10:21 | 41.53181 | -6.77839 | 39017 ft | 438 kts | 219° |
| 2026-04-22 10:22 | 41.48159 | -6.82454 | 39023 ft | 438 kts | 218° |
| 2026-04-22 10:22 | 41.43133 | -6.87048 | 39017 ft | 438 kts | 218° |
| 2026-04-22 10:23 | 41.38144 | -6.91598 | 39022 ft | 437 kts | 218° |
| 2026-04-22 10:23 | 41.33126 | -6.96169 | 39021 ft | 437 kts | 218° |
| 2026-04-22 10:24 | 41.28093 | -7.00747 | 39026 ft | 438 kts | 218° |
| 2026-04-22 10:24 | 41.23059 | -7.05317 | 39026 ft | 438 kts | 218° |
| 2026-04-22 10:25 | 41.18059 | -7.09847 | 39026 ft | 438 kts | 218° |
| 2026-04-22 10:25 | 41.13023 | -7.14401 | 39023 ft | 438 kts | 218° |
| 2026-04-22 10:26 | 41.07980 | -7.18953 | 39023 ft | 438 kts | 218° |
| 2026-04-22 10:26 | 41.02943 | -7.23490 | 39033 ft | 438 kts | 218° |
| 2026-04-22 10:27 | 40.97905 | -7.28020 | 39029 ft | 437 kts | 218° |
| 2026-04-22 10:27 | 40.92873 | -7.32536 | 39035 ft | 437 kts | 218° |
| 2026-04-22 10:28 | 40.87838 | -7.37047 | 39031 ft | 437 kts | 218° |
| 2026-04-22 10:28 | 40.82824 | -7.41531 | 39034 ft | 437 kts | 218° |
| 2026-04-22 10:29 | 40.77778 | -7.46035 | 39033 ft | 437 kts | 218° |
| 2026-04-22 10:29 | 40.72724 | -7.50536 | 39035 ft | 438 kts | 218° |
| 2026-04-22 10:30 | 40.67711 | -7.54992 | 39035 ft | 437 kts | 218° |
| 2026-04-22 10:30 | 40.62659 | -7.59477 | 39033 ft | 437 kts | 218° |
| 2026-04-22 10:31 | 40.57615 | -7.63945 | 39037 ft | 437 kts | 218° |
| 2026-04-22 10:31 | 40.52571 | -7.68406 | 39037 ft | 437 kts | 218° |
| 2026-04-22 10:32 | 40.47520 | -7.72864 | 39034 ft | 437 kts | 218° |
| 2026-04-22 10:32 | 40.42473 | -7.77311 | 39035 ft | 437 kts | 218° |
| 2026-04-22 10:33 | 40.37452 | -7.81725 | 39034 ft | 437 kts | 217° |
| 2026-04-22 10:33 | 40.32397 | -7.86161 | 39033 ft | 437 kts | 217° |
| 2026-04-22 10:34 | 40.27339 | -7.90593 | 39031 ft | 437 kts | 217° |
| 2026-04-22 10:34 | 40.22306 | -7.94995 | 39029 ft | 437 kts | 217° |
| 2026-04-22 10:35 | 40.17249 | -7.99410 | 39029 ft | 437 kts | 217° |
| 2026-04-22 10:35 | 40.12186 | -8.03820 | 39032 ft | 437 kts | 217° |
| 2026-04-22 10:36 | 40.07116 | -8.08229 | 39034 ft | 437 kts | 217° |
| 2026-04-22 10:36 | 40.02049 | -8.12629 | 39033 ft | 437 kts | 217° |
| 2026-04-22 10:37 | 39.94443 | -8.19219 | 39030 ft | 438 kts | 217° |
| 2026-04-22 10:38 | 39.89361 | -8.23613 | 39035 ft | 439 kts | 217° |
| 2026-04-22 10:38 | 39.84265 | -8.28009 | 39034 ft | 439 kts | 217° |
| 2026-04-22 10:39 | 39.79199 | -8.32372 | 39037 ft | 439 kts | 217° |
| 2026-04-22 10:39 | 39.74103 | -8.36752 | 39038 ft | 438 kts | 217° |
| 2026-04-22 10:40 | 39.69015 | -8.41117 | 39039 ft | 438 kts | 217° |
| 2026-04-22 10:40 | 39.63930 | -8.45472 | 39038 ft | 438 kts | 217° |
| 2026-04-22 10:41 | 39.58836 | -8.49828 | 39039 ft | 438 kts | 217° |
| 2026-04-22 10:41 | 39.53746 | -8.54172 | 39039 ft | 438 kts | 217° |
| 2026-04-22 10:42 | 39.48650 | -8.58513 | 39021 ft | 438 kts | 217° |
| 2026-04-22 10:42 | 39.43536 | -8.62862 | 39042 ft | 439 kts | 217° |
| 2026-04-22 10:43 | 39.38461 | -8.67170 | 39046 ft | 439 kts | 217° |
| 2026-04-22 10:43 | 39.33346 | -8.71505 | 39046 ft | 439 kts | 217° |
| 2026-04-22 10:44 | 39.28236 | -8.75828 | 39036 ft | 438 kts | 217° |
| 2026-04-22 10:44 | 39.23143 | -8.80128 | 39030 ft | 437 kts | 217° |
| 2026-04-22 10:45 | 39.18048 | -8.84424 | 39031 ft | 438 kts | 217° |
| 2026-04-22 10:45 | 39.12925 | -8.88735 | 39051 ft | 438 kts | 217° |
| 2026-04-22 10:46 | 39.07815 | -8.93027 | 39037 ft | 438 kts | 217° |
| 2026-04-22 10:46 | 39.02734 | -8.97287 | 39039 ft | 439 kts | 217° |
| 2026-04-22 10:47 | 38.97613 | -9.01574 | 39046 ft | 439 kts | 217° |
| 2026-04-22 10:47 | 38.92486 | -9.05858 | 39051 ft | 440 kts | 217° |
| 2026-04-22 10:48 | 38.87349 | -9.10143 | 39057 ft | 439 kts | 217° |
| 2026-04-22 10:48 | 38.82230 | -9.14404 | 39054 ft | 437 kts | 217° |
| 2026-04-22 10:49 | 38.77134 | -9.18641 | 39038 ft | 437 kts | 217° |
| 2026-04-22 10:49 | 38.72052 | -9.22858 | 39042 ft | 437 kts | 217° |
| 2026-04-22 10:50 | 38.66953 | -9.27083 | 39034 ft | 438 kts | 217° |
| 2026-04-22 10:50 | 38.61831 | -9.31319 | 39039 ft | 438 kts | 217° |
| 2026-04-22 10:51 | 38.56719 | -9.35538 | 39043 ft | 438 kts | 217° |
| 2026-04-22 10:51 | 38.51591 | -9.39763 | 39038 ft | 438 kts | 217° |
| 2026-04-22 10:52 | 38.46501 | -9.43950 | 39039 ft | 438 kts | 217° |
| 2026-04-22 10:52 | 38.41341 | -9.48188 | 39047 ft | 438 kts | 217° |
| 2026-04-22 10:53 | 38.36265 | -9.52349 | 39047 ft | 436 kts | 217° |
| 2026-04-22 10:53 | 38.31155 | -9.56532 | 39044 ft | 436 kts | 216° |
| 2026-04-22 10:54 | 38.26044 | -9.60708 | 39017 ft | 436 kts | 216° |
| 2026-04-22 10:54 | 38.20924 | -9.64886 | 39042 ft | 437 kts | 216° |
| 2026-04-22 10:55 | 38.15801 | -9.69057 | 39040 ft | 438 kts | 216° |
| 2026-04-22 10:55 | 38.11529 | -9.72531 | 39040 ft | 438 kts | 216° |
| 2026-04-22 10:56 | 38.05556 | -9.77379 | 39041 ft | 438 kts | 216° |
| 2026-04-22 10:56 | 38.01257 | -9.80863 | 39042 ft | 438 kts | 216° |
| 2026-04-22 10:57 | 37.96172 | -9.85028 | 39044 ft | 437 kts | 217° |
| 2026-04-22 10:57 | 37.91096 | -9.89232 | 39040 ft | 435 kts | 217° |
| 2026-04-22 10:58 | 37.86026 | -9.93427 | 39040 ft | 435 kts | 217° |
| 2026-04-22 10:58 | 37.80951 | -9.97613 | 39042 ft | 435 kts | 216° |
| 2026-04-22 10:59 | 37.75877 | -10.01788 | 39026 ft | 435 kts | 217° |
| 2026-04-22 10:59 | 37.70804 | -10.05954 | 39040 ft | 435 kts | 217° |
| 2026-04-22 11:00 | 37.65726 | -10.10117 | 39040 ft | 435 kts | 216° |
| 2026-04-22 11:00 | 37.60684 | -10.14246 | 39043 ft | 435 kts | 216° |
| 2026-04-22 11:01 | 37.55603 | -10.18398 | 39042 ft | 435 kts | 216° |
| 2026-04-22 11:01 | 37.50520 | -10.22544 | 39025 ft | 434 kts | 216° |
| 2026-04-22 11:02 | 37.45463 | -10.26662 | 39038 ft | 432 kts | 216° |
| 2026-04-22 11:02 | 37.40417 | -10.30765 | 39037 ft | 431 kts | 216° |
| 2026-04-22 11:03 | 37.35370 | -10.34863 | 39039 ft | 431 kts | 216° |
| 2026-04-22 11:03 | 37.30358 | -10.38927 | 39037 ft | 431 kts | 216° |
| 2026-04-22 11:04 | 37.25310 | -10.43011 | 39022 ft | 431 kts | 216° |
| 2026-04-22 11:04 | 37.20249 | -10.47101 | 39037 ft | 432 kts | 216° |
| 2026-04-22 11:05 | 37.15200 | -10.51173 | 39036 ft | 432 kts | 216° |
| 2026-04-22 11:05 | 37.10152 | -10.55239 | 39037 ft | 431 kts | 216° |
| 2026-04-22 11:06 | 37.05095 | -10.59305 | 39034 ft | 431 kts | 216° |
| 2026-04-22 11:06 | 37.00069 | -10.63338 | 39035 ft | 428 kts | 216° |
| 2026-04-22 11:07 | 36.95074 | -10.67342 | 39033 ft | 428 kts | 216° |
| 2026-04-22 11:07 | 36.90056 | -10.71359 | 39034 ft | 429 kts | 216° |
| 2026-04-22 11:08 | 36.85026 | -10.75378 | 39036 ft | 429 kts | 216° |
| 2026-04-22 11:08 | 36.79997 | -10.79390 | 39035 ft | 428 kts | 216° |
| 2026-04-22 11:09 | 36.74972 | -10.83391 | 39033 ft | 428 kts | 216° |
| 2026-04-22 11:09 | 36.69947 | -10.87387 | 39034 ft | 428 kts | 216° |
| 2026-04-22 11:10 | 36.64945 | -10.91359 | 39037 ft | 428 kts | 216° |
| 2026-04-22 11:10 | 36.59917 | -10.95344 | 39042 ft | 428 kts | 216° |
| 2026-04-22 11:11 | 36.54906 | -10.99310 | 39036 ft | 426 kts | 216° |
| 2026-04-22 11:11 | 36.49904 | -11.03262 | 39034 ft | 426 kts | 216° |
| 2026-04-22 11:12 | 36.44900 | -11.07211 | 39032 ft | 426 kts | 216° |
| 2026-04-22 11:12 | 36.39889 | -11.11159 | 39035 ft | 426 kts | 216° |
| 2026-04-22 11:13 | 36.34885 | -11.15094 | 39031 ft | 426 kts | 216° |
| 2026-04-22 11:13 | 36.29917 | -11.18995 | 39033 ft | 425 kts | 216° |
| 2026-04-22 11:14 | 36.24901 | -11.22928 | 39034 ft | 425 kts | 216° |
| 2026-04-22 11:14 | 36.19900 | -11.26842 | 39023 ft | 426 kts | 216° |
| 2026-04-22 11:15 | 36.14882 | -11.30762 | 39031 ft | 426 kts | 216° |
| 2026-04-22 11:15 | 36.09861 | -11.34681 | 39036 ft | 425 kts | 216° |
| 2026-04-22 11:16 | 36.04894 | -11.38553 | 39034 ft | 424 kts | 216° |
| 2026-04-22 11:16 | 35.99891 | -11.42448 | 39035 ft | 424 kts | 216° |
| 2026-04-22 11:17 | 35.94759 | -11.46082 | 39017 ft | 427 kts | 211° |
| 2026-04-22 11:17 | 35.89452 | -11.49413 | 39034 ft | 428 kts | 211° |
| 2026-04-22 11:18 | 35.84133 | -11.52731 | 39033 ft | 428 kts | 211° |
| 2026-04-22 11:18 | 35.78854 | -11.56021 | 39034 ft | 428 kts | 211° |
| 2026-04-22 11:19 | 35.73540 | -11.59329 | 39034 ft | 428 kts | 211° |
| 2026-04-22 11:19 | 35.68227 | -11.62631 | 39025 ft | 428 kts | 211° |
| 2026-04-22 11:20 | 35.62904 | -11.65935 | 39020 ft | 428 kts | 211° |
| 2026-04-22 11:20 | 35.57570 | -11.69241 | 39035 ft | 428 kts | 211° |
| 2026-04-22 11:21 | 35.52282 | -11.72513 | 39034 ft | 428 kts | 211° |
| 2026-04-22 11:21 | 35.46955 | -11.75804 | 39039 ft | 428 kts | 211° |
| 2026-04-22 11:22 | 35.41638 | -11.79085 | 39037 ft | 428 kts | 211° |
| 2026-04-22 11:22 | 35.36313 | -11.82376 | 39024 ft | 428 kts | 211° |
| 2026-04-22 11:23 | 35.30984 | -11.85650 | 39040 ft | 428 kts | 211° |
| 2026-04-22 11:23 | 35.25678 | -11.88905 | 39037 ft | 428 kts | 211° |
| 2026-04-22 11:24 | 35.20348 | -11.92172 | 39039 ft | 428 kts | 211° |
| 2026-04-22 11:24 | 35.15018 | -11.95436 | 39025 ft | 428 kts | 211° |
| 2026-04-22 11:25 | 35.09678 | -11.98701 | 39039 ft | 430 kts | 211° |
| 2026-04-22 11:25 | 35.04328 | -12.01968 | 39036 ft | 430 kts | 211° |
| 2026-04-22 11:26 | 34.98980 | -12.05229 | 39042 ft | 430 kts | 211° |
| 2026-04-22 11:26 | 34.93635 | -12.08483 | 39036 ft | 428 kts | 211° |
| 2026-04-22 11:27 | 34.88299 | -12.11726 | 39022 ft | 428 kts | 211° |
| 2026-04-22 11:27 | 34.82989 | -12.14951 | 39033 ft | 429 kts | 211° |
| 2026-04-22 11:28 | 34.77641 | -12.18193 | 39034 ft | 429 kts | 211° |
| 2026-04-22 11:28 | 34.72290 | -12.21431 | 39034 ft | 429 kts | 211° |
| 2026-04-22 11:29 | 34.66936 | -12.24667 | 39034 ft | 429 kts | 211° |
| 2026-04-22 11:29 | 34.61582 | -12.27898 | 39022 ft | 429 kts | 211° |
| 2026-04-22 11:30 | 34.56230 | -12.31123 | 39038 ft | 430 kts | 211° |
| 2026-04-22 11:30 | 34.50910 | -12.34325 | 39035 ft | 430 kts | 211° |
| 2026-04-22 11:31 | 34.45547 | -12.37548 | 39034 ft | 430 kts | 211° |
| 2026-04-22 11:31 | 34.40185 | -12.40766 | 39046 ft | 430 kts | 211° |
| 2026-04-22 11:32 | 34.34827 | -12.43975 | 39018 ft | 429 kts | 212° |
| 2026-04-22 11:32 | 34.29469 | -12.47180 | 39029 ft | 429 kts | 212° |
| 2026-04-22 11:33 | 34.24115 | -12.50379 | 39032 ft | 429 kts | 212° |
| 2026-04-22 11:33 | 34.18789 | -12.53557 | 39038 ft | 429 kts | 212° |
| 2026-04-22 11:34 | 34.13423 | -12.56753 | 39036 ft | 429 kts | 212° |
| 2026-04-22 11:34 | 34.08055 | -12.59947 | 39015 ft | 429 kts | 212° |
| 2026-04-22 11:35 | 34.02685 | -12.63137 | 39033 ft | 430 kts | 212° |
| 2026-04-22 11:35 | 33.97308 | -12.66327 | 39039 ft | 431 kts | 212° |
| 2026-04-22 11:36 | 33.91932 | -12.69512 | 39036 ft | 431 kts | 212° |
| 2026-04-22 11:36 | 33.86591 | -12.72671 | 39036 ft | 431 kts | 212° |
| 2026-04-22 11:37 | 33.81205 | -12.75852 | 39034 ft | 431 kts | 212° |
| 2026-04-22 11:37 | 33.75829 | -12.79024 | 39046 ft | 430 kts | 212° |
| 2026-04-22 11:38 | 33.70455 | -12.82189 | 39033 ft | 429 kts | 212° |
| 2026-04-22 11:38 | 33.62415 | -12.86917 | 39033 ft | 429 kts | 212° |
| 2026-04-22 11:39 | 33.57085 | -12.90046 | 39035 ft | 429 kts | 212° |
| 2026-04-22 11:39 | 33.51722 | -12.93189 | 39036 ft | 429 kts | 212° |
| 2026-04-22 11:40 | 33.46360 | -12.96328 | 39039 ft | 429 kts | 212° |
| 2026-04-22 11:40 | 33.40989 | -12.99468 | 39042 ft | 429 kts | 212° |
| 2026-04-22 11:41 | 33.35623 | -13.02601 | 39043 ft | 429 kts | 212° |
| 2026-04-22 11:41 | 33.30256 | -13.05729 | 39042 ft | 429 kts | 212° |
| 2026-04-22 11:42 | 33.25173 | -13.08688 | 39025 ft | 429 kts | 213° |
| 2026-04-22 11:42 | 33.19790 | -13.11818 | 39042 ft | 429 kts | 213° |
| 2026-04-22 11:43 | 33.14415 | -13.14939 | 38989 ft | 429 kts | 213° |
| 2026-04-22 11:43 | 33.11736 | -13.16491 | 38795 ft | 426 kts | 213° |
| 2026-04-22 11:43 | 33.09069 | -13.18037 | 38529 ft | 425 kts | 213° |
| 2026-04-22 11:44 | 33.06406 | -13.19580 | 38237 ft | 425 kts | 213° |
| 2026-04-22 11:44 | 33.03744 | -13.21123 | 37960 ft | 426 kts | 212° |
| 2026-04-22 11:44 | 33.01112 | -13.22646 | 37688 ft | 427 kts | 212° |
| 2026-04-22 11:44 | 32.98437 | -13.24194 | 37418 ft | 427 kts | 212° |
| 2026-04-22 11:45 | 32.95753 | -13.25745 | 37134 ft | 428 kts | 212° |
| 2026-04-22 11:45 | 32.93069 | -13.27296 | 36869 ft | 428 kts | 212° |
| 2026-04-22 11:45 | 32.90386 | -13.28844 | 36614 ft | 429 kts | 212° |
| 2026-04-22 11:45 | 32.87693 | -13.30397 | 36350 ft | 430 kts | 212° |
| 2026-04-22 11:46 | 32.85004 | -13.31947 | 36098 ft | 430 kts | 212° |
| 2026-04-22 11:46 | 32.82304 | -13.33502 | 35845 ft | 431 kts | 211° |
| 2026-04-22 11:46 | 32.79604 | -13.35056 | 35593 ft | 431 kts | 211° |
| 2026-04-22 11:46 | 32.76903 | -13.36610 | 35351 ft | 432 kts | 211° |
| 2026-04-22 11:47 | 32.74196 | -13.38166 | 35113 ft | 432 kts | 211° |
| 2026-04-22 11:47 | 32.71523 | -13.39701 | 34874 ft | 433 kts | 211° |
| 2026-04-22 11:47 | 32.68808 | -13.41259 | 34623 ft | 433 kts | 211° |
| 2026-04-22 11:47 | 32.66083 | -13.42822 | 34386 ft | 434 kts | 210° |
| 2026-04-22 11:48 | 32.63366 | -13.44380 | 34153 ft | 435 kts | 210° |
| 2026-04-22 11:48 | 32.60637 | -13.45943 | 33888 ft | 435 kts | 210° |
| 2026-04-22 11:48 | 32.57906 | -13.47506 | 33611 ft | 436 kts | 210° |
| 2026-04-22 11:48 | 32.55171 | -13.49070 | 33353 ft | 437 kts | 210° |
| 2026-04-22 11:49 | 32.52432 | -13.50636 | 33095 ft | 437 kts | 210° |
| 2026-04-22 11:49 | 32.49691 | -13.52201 | 32836 ft | 437 kts | 210° |
| 2026-04-22 11:49 | 32.46954 | -13.53763 | 32573 ft | 437 kts | 210° |
| 2026-04-22 11:49 | 32.44207 | -13.55329 | 32316 ft | 438 kts | 210° |
| 2026-04-22 11:50 | 32.41459 | -13.56896 | 32034 ft | 439 kts | 210° |
| 2026-04-22 11:50 | 32.38734 | -13.58448 | 31785 ft | 440 kts | 210° |
| 2026-04-22 11:50 | 32.35964 | -13.60023 | 31532 ft | 441 kts | 210° |
| 2026-04-22 11:50 | 32.33195 | -13.61598 | 31283 ft | 442 kts | 210° |
| 2026-04-22 11:51 | 32.30415 | -13.63178 | 31035 ft | 443 kts | 210° |
| 2026-04-22 11:51 | 32.27641 | -13.64752 | 30791 ft | 442 kts | 209° |
| 2026-04-22 11:51 | 32.24863 | -13.66328 | 30549 ft | 441 kts | 209° |
| 2026-04-22 11:51 | 32.22101 | -13.67894 | 30313 ft | 439 kts | 209° |
| 2026-04-22 11:52 | 32.19349 | -13.69453 | 30058 ft | 437 kts | 209° |
| 2026-04-22 11:52 | 32.16605 | -13.71007 | 29787 ft | 436 kts | 209° |
| 2026-04-22 11:52 | 32.13878 | -13.72551 | 29507 ft | 434 kts | 209° |
| 2026-04-22 11:52 | 32.11193 | -13.74069 | 29227 ft | 433 kts | 209° |
| 2026-04-22 11:53 | 32.08483 | -13.75602 | 28951 ft | 432 kts | 209° |
| 2026-04-22 11:53 | 32.05775 | -13.77131 | 28691 ft | 430 kts | 209° |
| 2026-04-22 11:53 | 32.03080 | -13.78652 | 28417 ft | 429 kts | 209° |
| 2026-04-22 11:53 | 32.00394 | -13.80167 | 28147 ft | 427 kts | 209° |
| 2026-04-22 11:54 | 31.97719 | -13.81675 | 27893 ft | 425 kts | 209° |
| 2026-04-22 11:54 | 31.95055 | -13.83176 | 27632 ft | 423 kts | 209° |
| 2026-04-22 11:54 | 31.92400 | -13.84671 | 27368 ft | 422 kts | 209° |
| 2026-04-22 11:54 | 31.90648 | -13.85657 | 27215 ft | 421 kts | 209° |
| 2026-04-22 11:55 | 31.88005 | -13.87143 | 26969 ft | 418 kts | 209° |
| 2026-04-22 11:55 | 31.84534 | -13.89094 | 26616 ft | 416 kts | 209° |
| 2026-04-22 11:55 | 31.81925 | -13.90559 | 26367 ft | 414 kts | 209° |
| 2026-04-22 11:55 | 31.80167 | -13.91546 | 26203 ft | 414 kts | 209° |
| 2026-04-22 11:56 | 31.77574 | -13.93000 | 25955 ft | 412 kts | 209° |
| 2026-04-22 11:56 | 31.75022 | -13.94432 | 25723 ft | 411 kts | 209° |
| 2026-04-22 11:56 | 31.72415 | -13.95893 | 25490 ft | 409 kts | 209° |
| 2026-04-22 11:56 | 31.69880 | -13.97312 | 25244 ft | 408 kts | 209° |
| 2026-04-22 11:57 | 31.67325 | -13.98742 | 25005 ft | 407 kts | 208° |
| 2026-04-22 11:57 | 31.64773 | -14.00169 | 24774 ft | 405 kts | 208° |
| 2026-04-22 11:57 | 31.62218 | -14.01597 | 24542 ft | 404 kts | 208° |
| 2026-04-22 11:57 | 31.59682 | -14.03014 | 24303 ft | 403 kts | 208° |
| 2026-04-22 11:58 | 31.57157 | -14.04424 | 24067 ft | 402 kts | 208° |
| 2026-04-22 11:58 | 31.54637 | -14.05830 | 23847 ft | 401 kts | 208° |
| 2026-04-22 11:58 | 31.52125 | -14.07230 | 23616 ft | 400 kts | 208° |
| 2026-04-22 11:58 | 31.49613 | -14.08631 | 23345 ft | 399 kts | 208° |
| 2026-04-22 11:59 | 31.47108 | -14.10025 | 23080 ft | 397 kts | 208° |
| 2026-04-22 11:59 | 31.44621 | -14.11410 | 22818 ft | 396 kts | 208° |
| 2026-04-22 11:59 | 31.42161 | -14.12778 | 22557 ft | 394 kts | 208° |
| 2026-04-22 11:59 | 31.39689 | -14.14152 | 22298 ft | 393 kts | 208° |
| 2026-04-22 12:00 | 31.37224 | -14.15522 | 22041 ft | 391 kts | 208° |
| 2026-04-22 12:00 | 31.34769 | -14.16886 | 21792 ft | 390 kts | 208° |
| 2026-04-22 12:00 | 31.32323 | -14.18243 | 21535 ft | 388 kts | 208° |
| 2026-04-22 12:00 | 31.29884 | -14.19596 | 21284 ft | 387 kts | 208° |
| 2026-04-22 12:01 | 31.27456 | -14.20941 | 21020 ft | 386 kts | 208° |
| 2026-04-22 12:01 | 31.25024 | -14.22289 | 20775 ft | 385 kts | 208° |
| 2026-04-22 12:01 | 31.22609 | -14.23627 | 20540 ft | 384 kts | 207° |
| 2026-04-22 12:01 | 31.20201 | -14.24959 | 20309 ft | 383 kts | 207° |
| 2026-04-22 12:02 | 31.17796 | -14.26289 | 20090 ft | 381 kts | 207° |
| 2026-04-22 12:02 | 31.15400 | -14.27613 | 20053 ft | 381 kts | 207° |
| 2026-04-22 12:02 | 31.12999 | -14.28940 | 20043 ft | 381 kts | 207° |
| 2026-04-22 12:02 | 31.10606 | -14.30261 | 20049 ft | 380 kts | 207° |
| 2026-04-22 12:03 | 31.08215 | -14.31581 | 20049 ft | 380 kts | 207° |
| 2026-04-22 12:03 | 31.05820 | -14.32902 | 20050 ft | 380 kts | 207° |
| 2026-04-22 12:03 | 31.03457 | -14.34205 | 20048 ft | 380 kts | 207° |
| 2026-04-22 12:03 | 31.01033 | -14.35541 | 20050 ft | 380 kts | 207° |
| 2026-04-22 12:04 | 30.98637 | -14.36860 | 20039 ft | 380 kts | 207° |
| 2026-04-22 12:04 | 30.96275 | -14.38160 | 20048 ft | 381 kts | 207° |
| 2026-04-22 12:04 | 30.93876 | -14.39479 | 20044 ft | 381 kts | 207° |
| 2026-04-22 12:04 | 30.91474 | -14.40797 | 20047 ft | 381 kts | 207° |
| 2026-04-22 12:05 | 30.89005 | -14.41958 | 20047 ft | 383 kts | 202° |
| 2026-04-22 12:05 | 30.86470 | -14.42936 | 20048 ft | 383 kts | 200° |
| 2026-04-22 12:05 | 30.83929 | -14.43873 | 20050 ft | 383 kts | 200° |
| 2026-04-22 12:05 | 30.81389 | -14.44804 | 20049 ft | 383 kts | 200° |
| 2026-04-22 12:06 | 30.78847 | -14.45738 | 20047 ft | 383 kts | 200° |
| 2026-04-22 12:06 | 30.76305 | -14.46673 | 20047 ft | 383 kts | 200° |
| 2026-04-22 12:06 | 30.73767 | -14.47607 | 20049 ft | 383 kts | 200° |
| 2026-04-22 12:06 | 30.71261 | -14.48529 | 20046 ft | 383 kts | 200° |
| 2026-04-22 12:07 | 30.68722 | -14.49464 | 20039 ft | 383 kts | 200° |
| 2026-04-22 12:07 | 30.66175 | -14.50401 | 20048 ft | 384 kts | 200° |
| 2026-04-22 12:07 | 30.63630 | -14.51337 | 20048 ft | 384 kts | 200° |
| 2026-04-22 12:07 | 30.61076 | -14.52276 | 20048 ft | 384 kts | 200° |
| 2026-04-22 12:08 | 30.58530 | -14.53211 | 20048 ft | 384 kts | 200° |
| 2026-04-22 12:08 | 30.55986 | -14.54145 | 20048 ft | 384 kts | 200° |
| 2026-04-22 12:08 | 30.53428 | -14.55084 | 20048 ft | 384 kts | 200° |
| 2026-04-22 12:08 | 30.50887 | -14.56016 | 20048 ft | 384 kts | 200° |
| 2026-04-22 12:09 | 30.48371 | -14.56939 | 20048 ft | 384 kts | 200° |
| 2026-04-22 12:09 | 30.45823 | -14.57873 | 20052 ft | 383 kts | 200° |
| 2026-04-22 12:09 | 30.43278 | -14.58804 | 20048 ft | 383 kts | 200° |
| 2026-04-22 12:09 | 30.40739 | -14.59733 | 20040 ft | 383 kts | 200° |
| 2026-04-22 12:10 | 30.38200 | -14.60662 | 20048 ft | 382 kts | 200° |
| 2026-04-22 12:10 | 30.35663 | -14.61590 | 20048 ft | 382 kts | 200° |
| 2026-04-22 12:10 | 30.33124 | -14.62517 | 20048 ft | 382 kts | 200° |
| 2026-04-22 12:10 | 30.30589 | -14.63443 | 20048 ft | 382 kts | 200° |
| 2026-04-22 12:11 | 30.28051 | -14.64370 | 20045 ft | 382 kts | 200° |
| 2026-04-22 12:11 | 30.25514 | -14.65295 | 20045 ft | 382 kts | 200° |
| 2026-04-22 12:11 | 30.22969 | -14.66223 | 20046 ft | 382 kts | 200° |
| 2026-04-22 12:11 | 30.20429 | -14.67149 | 20045 ft | 382 kts | 200° |
| 2026-04-22 12:12 | 30.17891 | -14.68073 | 20048 ft | 382 kts | 200° |
| 2026-04-22 12:12 | 30.15385 | -14.68986 | 20048 ft | 382 kts | 200° |
| 2026-04-22 12:12 | 30.12843 | -14.69911 | 20047 ft | 382 kts | 200° |
| 2026-04-22 12:12 | 30.10301 | -14.70835 | 20038 ft | 383 kts | 200° |
| 2026-04-22 12:13 | 30.07765 | -14.71757 | 20043 ft | 383 kts | 200° |
| 2026-04-22 12:13 | 30.05218 | -14.72682 | 20043 ft | 383 kts | 200° |
| 2026-04-22 12:13 | 30.02673 | -14.73606 | 20042 ft | 383 kts | 200° |
| 2026-04-22 12:13 | 30.00133 | -14.74527 | 20042 ft | 383 kts | 200° |
| 2026-04-22 12:14 | 29.97591 | -14.75449 | 20045 ft | 383 kts | 200° |
| 2026-04-22 12:14 | 29.95052 | -14.76369 | 20045 ft | 383 kts | 200° |
| 2026-04-22 12:14 | 29.92505 | -14.77292 | 20045 ft | 383 kts | 200° |
| 2026-04-22 12:14 | 29.89997 | -14.78200 | 20045 ft | 383 kts | 200° |
| 2026-04-22 12:15 | 29.87459 | -14.79119 | 20048 ft | 383 kts | 200° |
| 2026-04-22 12:15 | 29.84911 | -14.80040 | 20048 ft | 383 kts | 200° |
| 2026-04-22 12:15 | 29.82367 | -14.80960 | 20046 ft | 383 kts | 200° |
| 2026-04-22 12:15 | 29.79829 | -14.81877 | 20048 ft | 383 kts | 200° |
| 2026-04-22 12:16 | 29.77290 | -14.82794 | 20048 ft | 383 kts | 200° |
| 2026-04-22 12:16 | 29.74745 | -14.83712 | 20048 ft | 383 kts | 200° |
| 2026-04-22 12:16 | 29.72204 | -14.84629 | 20048 ft | 383 kts | 200° |
| 2026-04-22 12:16 | 29.69666 | -14.85544 | 20048 ft | 383 kts | 200° |
| 2026-04-22 12:17 | 29.67126 | -14.86459 | 20045 ft | 383 kts | 200° |
| 2026-04-22 12:17 | 29.64584 | -14.87375 | 20045 ft | 382 kts | 200° |
| 2026-04-22 12:17 | 29.62046 | -14.88288 | 20045 ft | 382 kts | 200° |
| 2026-04-22 12:17 | 29.59508 | -14.89201 | 20045 ft | 382 kts | 200° |
| 2026-04-22 12:18 | 29.56966 | -14.90115 | 20045 ft | 382 kts | 200° |
| 2026-04-22 12:18 | 29.54426 | -14.91028 | 20036 ft | 382 kts | 199° |
| 2026-04-22 12:18 | 29.51892 | -14.91939 | 20042 ft | 383 kts | 199° |
| 2026-04-22 12:18 | 29.49344 | -14.92853 | 20049 ft | 383 kts | 199° |
| 2026-04-22 12:19 | 29.46799 | -14.93767 | 20045 ft | 383 kts | 199° |
| 2026-04-22 12:19 | 29.44285 | -14.94668 | 20041 ft | 383 kts | 199° |
| 2026-04-22 12:19 | 29.41734 | -14.95583 | 20045 ft | 382 kts | 199° |
| 2026-04-22 12:19 | 29.39197 | -14.96491 | 20047 ft | 382 kts | 199° |
| 2026-04-22 12:20 | 29.36661 | -14.97400 | 20046 ft | 382 kts | 199° |
| 2026-04-22 12:20 | 29.34122 | -14.98308 | 20048 ft | 382 kts | 199° |
| 2026-04-22 12:20 | 29.31586 | -14.99216 | 20049 ft | 382 kts | 199° |
| 2026-04-22 12:20 | 29.29044 | -15.00124 | 20047 ft | 382 kts | 199° |
| 2026-04-22 12:21 | 29.26503 | -15.01032 | 20048 ft | 382 kts | 199° |
| 2026-04-22 12:21 | 29.23964 | -15.01939 | 20039 ft | 382 kts | 199° |
| 2026-04-22 12:21 | 29.21425 | -15.02846 | 20047 ft | 382 kts | 199° |
| 2026-04-22 12:21 | 29.18918 | -15.03740 | 20049 ft | 382 kts | 199° |
| 2026-04-22 12:22 | 29.16370 | -15.04648 | 20049 ft | 382 kts | 199° |
| 2026-04-22 12:22 | 29.13829 | -15.05554 | 20049 ft | 382 kts | 199° |
| 2026-04-22 12:22 | 29.11280 | -15.06462 | 20051 ft | 382 kts | 199° |
| 2026-04-22 12:22 | 29.08748 | -15.07363 | 20045 ft | 382 kts | 199° |
| 2026-04-22 12:23 | 29.06199 | -15.08270 | 20044 ft | 382 kts | 199° |
| 2026-04-22 12:23 | 29.03662 | -15.09173 | 20042 ft | 382 kts | 199° |
| 2026-04-22 12:23 | 29.01120 | -15.10077 | 20044 ft | 382 kts | 199° |
| 2026-04-22 12:23 | 28.98612 | -15.10968 | 20044 ft | 382 kts | 199° |
| 2026-04-22 12:24 | 28.96071 | -15.11870 | 20032 ft | 382 kts | 199° |
| 2026-04-22 12:24 | 28.93530 | -15.12772 | 20041 ft | 382 kts | 199° |
| 2026-04-22 12:24 | 28.90991 | -15.13673 | 20043 ft | 382 kts | 199° |
| 2026-04-22 12:24 | 28.88448 | -15.14574 | 20041 ft | 382 kts | 199° |
| 2026-04-22 12:25 | 28.85907 | -15.15475 | 20038 ft | 382 kts | 199° |
| 2026-04-22 12:25 | 28.83363 | -15.16376 | 20041 ft | 382 kts | 199° |
| 2026-04-22 12:25 | 28.80815 | -15.17278 | 20043 ft | 382 kts | 199° |
| 2026-04-22 12:25 | 28.78269 | -15.18179 | 20041 ft | 382 kts | 199° |
| 2026-04-22 12:26 | 28.75757 | -15.19067 | 20043 ft | 382 kts | 199° |
| 2026-04-22 12:26 | 28.73215 | -15.19966 | 20038 ft | 382 kts | 199° |
| 2026-04-22 12:26 | 28.70663 | -15.20867 | 20038 ft | 382 kts | 199° |
| 2026-04-22 12:26 | 28.68123 | -15.21764 | 20050 ft | 382 kts | 199° |
| 2026-04-22 12:27 | 28.65580 | -15.22662 | 20049 ft | 382 kts | 199° |
| 2026-04-22 12:27 | 28.63034 | -15.23560 | 20040 ft | 383 kts | 199° |
| 2026-04-22 12:27 | 28.60482 | -15.24460 | 20042 ft | 383 kts | 199° |
| 2026-04-22 12:27 | 28.57977 | -15.25343 | 20036 ft | 383 kts | 199° |
| 2026-04-22 12:28 | 28.55428 | -15.26241 | 20032 ft | 383 kts | 199° |
| 2026-04-22 12:28 | 28.52885 | -15.27136 | 20048 ft | 383 kts | 199° |
| 2026-04-22 12:28 | 28.50336 | -15.28033 | 20048 ft | 383 kts | 199° |
| 2026-04-22 12:28 | 28.47787 | -15.28929 | 20046 ft | 383 kts | 199° |
| 2026-04-22 12:29 | 28.45241 | -15.29824 | 20046 ft | 383 kts | 199° |
| 2026-04-22 12:29 | 28.42695 | -15.30719 | 20046 ft | 383 kts | 199° |
| 2026-04-22 12:29 | 28.40143 | -15.31615 | 20033 ft | 383 kts | 199° |
| 2026-04-22 12:29 | 28.37598 | -15.32508 | 20035 ft | 383 kts | 199° |
| 2026-04-22 12:30 | 28.32502 | -15.34295 | 20042 ft | 384 kts | 199° |
| 2026-04-22 12:30 | 28.29950 | -15.35190 | 20042 ft | 384 kts | 199° |
| 2026-04-22 12:30 | 28.27397 | -15.36084 | 20045 ft | 384 kts | 199° |
| 2026-04-22 12:31 | 28.24870 | -15.36968 | 20046 ft | 384 kts | 199° |
| 2026-04-22 12:31 | 28.22320 | -15.37861 | 20046 ft | 384 kts | 199° |
| 2026-04-22 12:31 | 28.19766 | -15.38754 | 20046 ft | 384 kts | 198° |
| 2026-04-22 12:31 | 28.17208 | -15.39649 | 20045 ft | 384 kts | 198° |
| 2026-04-22 12:32 | 28.14661 | -15.40539 | 20046 ft | 384 kts | 198° |
| 2026-04-22 12:32 | 28.09452 | -15.41835 | 20044 ft | 388 kts | 181° |
| 2026-04-22 12:32 | 28.06780 | -15.41280 | 19891 ft | 398 kts | 164° |
| 2026-04-22 12:33 | 28.04304 | -15.39819 | 19147 ft | 408 kts | 147° |
| 2026-04-22 12:33 | 28.02232 | -15.37598 | 18296 ft | 414 kts | 136° |
| 2026-04-22 12:33 | 28.00326 | -15.35190 | 17536 ft | 411 kts | 136° |
| 2026-04-22 12:33 | 27.98424 | -15.32835 | 17017 ft | 400 kts | 136° |
| 2026-04-22 12:34 | 27.96730 | -15.30366 | 16372 ft | 398 kts | 125° |
| 2026-04-22 12:34 | 27.95570 | -15.27498 | 15385 ft | 407 kts | 111° |
| 2026-04-22 12:34 | 27.95094 | -15.24294 | 14084 ft | 423 kts | 94° |
| 2026-04-22 12:34 | 27.95463 | -15.20945 | 12604 ft | 437 kts | 76° |
| 2026-04-22 12:35 | 27.96539 | -15.17825 | 12798 ft | 404 kts | 67° |
| 2026-04-22 12:35 | 27.97750 | -15.15219 | 13575 ft | 345 kts | 64° |
| 2026-04-22 12:35 | 27.98658 | -15.12825 | 13848 ft | 324 kts | 74° |
| 2026-04-22 12:35 | 27.99304 | -15.10384 | 13855 ft | 325 kts | 77° |
| 2026-04-22 12:36 | 27.99911 | -15.07911 | 13851 ft | 326 kts | 77° |
| 2026-04-22 12:36 | 28.00516 | -15.05429 | 13852 ft | 327 kts | 77° |
| 2026-04-22 12:36 | 28.01112 | -15.02980 | 13849 ft | 327 kts | 77° |
| 2026-04-22 12:36 | 28.01717 | -15.00492 | 13849 ft | 329 kts | 77° |
| 2026-04-22 12:37 | 28.02322 | -14.97995 | 13604 ft | 329 kts | 77° |
| 2026-04-22 12:37 | 28.02831 | -14.95467 | 12972 ft | 331 kts | 86° |
| 2026-04-22 12:37 | 28.02818 | -14.92843 | 11972 ft | 339 kts | 103° |
| 2026-04-22 12:37 | 28.01975 | -14.90310 | 10620 ft | 353 kts | 127° |
| 2026-04-22 12:38 | 28.00220 | -14.88327 | 9131 ft | 365 kts | 150° |
| 2026-04-22 12:38 | 27.97843 | -14.87262 | 7621 ft | 374 kts | 172° |
| 2026-04-22 12:38 | 27.95264 | -14.87299 | 6218 ft | 368 kts | 194° |
| 2026-04-22 12:38 | 27.93014 | -14.88393 | 5513 ft | 335 kts | 211° |
| 2026-04-22 12:39 | 27.91107 | -14.89655 | 5181 ft | 301 kts | 212° |
| 2026-04-22 12:39 | 27.87813 | -14.91667 | 4994 ft | 243 kts | 209° |
| 2026-04-22 12:39 | 27.86334 | -14.92490 | 4986 ft | 233 kts | 208° |
| 2026-04-22 12:40 | 27.84864 | -14.93268 | 4987 ft | 233 kts | 207° |
| 2026-04-22 12:40 | 27.83379 | -14.94018 | 4981 ft | 234 kts | 206° |
| 2026-04-22 12:40 | 27.81931 | -14.94963 | 4979 ft | 252 kts | 221° |
| 2026-04-22 12:40 | 27.80834 | -14.96544 | 4978 ft | 260 kts | 249° |
| 2026-04-22 12:41 | 27.80440 | -14.98533 | 4984 ft | 261 kts | 264° |
| 2026-04-22 12:41 | 27.80294 | -15.00575 | 4984 ft | 261 kts | 267° |
| 2026-04-22 12:41 | 27.80192 | -15.02624 | 4984 ft | 261 kts | 268° |
| 2026-04-22 12:41 | 27.80099 | -15.04674 | 4983 ft | 261 kts | 268° |
| 2026-04-22 12:42 | 27.80004 | -15.06699 | 4985 ft | 261 kts | 268° |
| 2026-04-22 12:42 | 27.79903 | -15.08750 | 4989 ft | 262 kts | 268° |
| 2026-04-22 12:42 | 27.79799 | -15.10801 | 4947 ft | 263 kts | 268° |
| 2026-04-22 12:42 | 27.79693 | -15.12861 | 4809 ft | 262 kts | 268° |
| 2026-04-22 12:43 | 27.79586 | -15.14908 | 4675 ft | 261 kts | 268° |
| 2026-04-22 12:43 | 27.79476 | -15.16959 | 4547 ft | 261 kts | 268° |
| 2026-04-22 12:43 | 27.79403 | -15.18316 | 4463 ft | 261 kts | 268° |
| 2026-04-22 12:43 | 27.79294 | -15.20352 | 4337 ft | 260 kts | 268° |
| 2026-04-22 12:44 | 27.79185 | -15.22389 | 4205 ft | 257 kts | 268° |
| 2026-04-22 12:44 | 27.79077 | -15.24372 | 4012 ft | 250 kts | 268° |
| 2026-04-22 12:44 | 27.78972 | -15.26289 | 3905 ft | 239 kts | 267° |
| 2026-04-22 12:44 | 27.78869 | -15.28119 | 3827 ft | 227 kts | 267° |
| 2026-04-22 12:45 | 27.78772 | -15.29869 | 3717 ft | 219 kts | 267° |
| 2026-04-22 12:45 | 27.78680 | -15.31551 | 3623 ft | 210 kts | 267° |
| 2026-04-22 12:45 | 27.78590 | -15.33167 | 3536 ft | 202 kts | 267° |
| 2026-04-22 12:45 | 27.78503 | -15.34728 | 3435 ft | 198 kts | 268° |
| 2026-04-22 12:46 | 27.78417 | -15.36289 | 3223 ft | 199 kts | 268° |
| 2026-04-22 12:46 | 27.78333 | -15.37836 | 3004 ft | 196 kts | 267° |
| 2026-04-22 12:46 | 27.78247 | -15.39362 | 2782 ft | 193 kts | 267° |
| 2026-04-22 12:46 | 27.78352 | -15.40869 | 2545 ft | 201 kts | 285° |
| 2026-04-22 12:47 | 27.79097 | -15.42339 | 2474 ft | 227 kts | 318° |
| 2026-04-22 12:47 | 27.80434 | -15.43016 | 2486 ft | 206 kts | 352° |
| 2026-04-22 12:47 | 27.81796 | -15.43149 | 2503 ft | 188 kts | 2° |
| 2026-04-22 12:47 | 27.83026 | -15.43026 | 2504 ft | 166 kts | 10° |
| 2026-04-22 12:48 | 27.84083 | -15.42694 | 2497 ft | 148 kts | 22° |
| 2026-04-22 12:48 | 27.84999 | -15.42294 | 2499 ft | 140 kts | 22° |
| 2026-04-22 12:48 | 27.85888 | -15.41923 | 2455 ft | 132 kts | 22° |
| 2026-04-22 12:48 | 27.86736 | -15.41540 | 2118 ft | 135 kts | 24° |
| 2026-04-22 12:49 | 27.87671 | -15.41122 | 1590 ft | 146 kts | 24° |
| 2026-04-22 12:49 | 27.88624 | -15.40703 | 1183 ft | 147 kts | 23° |
| 2026-04-22 12:49 | 27.89563 | -15.40283 | 816 ft | 146 kts | 26° |
| 2026-04-22 12:49 | 27.90493 | -15.39855 | 503 ft | 140 kts | 22° |
| 2026-04-22 12:50 | 27.91385 | -15.39466 | 254 ft | 133 kts | 24° |
| 2026-04-22 12:50 | 27.92205 | -15.39095 | 92 ft | 122 kts | 24° |
| 2026-04-22 12:50 | 27.92888 | -15.38795 | 58 ft | 80 kts | 21° |
| 2026-04-22 12:50 | 27.93216 | -15.38725 | 53 ft | 38 kts | 352° |
| 2026-04-22 12:51 | 27.93409 | -15.38745 | 53 ft | 24 kts | 9° |
| 2026-04-22 12:51 | 27.93573 | -15.38681 | 48 ft | 26 kts | 22° |
| 2026-04-22 12:51 | 27.93746 | -15.38610 | 51 ft | 27 kts | 21° |
| 2026-04-22 12:51 | 27.93932 | -15.38528 | 47 ft | 29 kts | 19° |
| 2026-04-22 12:52 | 27.94087 | -15.38542 | 46 ft | 21 kts | 339° |
| 2026-04-22 12:52 | 27.94159 | -15.38608 | 46 ft | 7 kts | 289° |
| 2026-04-22 12:52 | 27.94172 | -15.38648 | 45 ft | 7 kts | 282° |
| 2026-04-22 12:52 | 27.94177 | -15.38674 | 46 ft | 0 kts | 279° |